Time;durP1;ratioP1;P1;durP2;ratioP2;P2;SDS_P1;SDS_P2;PMS_P1;PMS_P2;Temp;Humidity;BMP_temperature;BMP_pressure;BME280_temperature;BME280_humidity;BME280_pressure;Samples;Min_cycle;Max_cycle;Signal;HPM_P1;HPM_P2
2024/01/18 05:51:30;;;;;;;14.60;6.40;;;;;;;1.87;100.00;99136.09;111983;1249;22688;-50
2024/01/18 05:53:57;;;;;;;16.00;6.10;;;;;;;1.87;100.00;99128.17;111289;1249;25372;-47
2024/01/18 05:56:23;;;;;;;11.20;5.90;;;;;;;1.87;100.00;99134.36;111159;1240;26471;-52
2024/01/18 05:58:50;;;;;;;14.20;5.90;;;;;;;1.88;100.00;99136.27;111966;1240;25601;-51
2024/01/18 06:01:17;;;;;;;16.60;6.40;;;;;;;1.90;100.00;99133.03;112725;1240;22398;-46
2024/01/18 06:03:44;;;;;;;9.70;5.60;;;;;;;1.93;100.00;99119.49;112823;1244;22488;-53
2024/01/18 06:06:11;;;;;;;12.80;5.30;;;;;;;1.94;100.00;99112.29;112863;1239;22438;-47
2024/01/18 06:08:38;;;;;;;9.90;6.00;;;;;;;1.96;100.00;99116.80;112854;1239;22345;-46
2024/01/18 06:11:05;;;;;;;13.10;6.30;;;;;;;1.99;100.00;99103.09;112845;1249;22275;-46
2024/01/18 06:13:31;;;;;;;11.80;5.10;;;;;;;2.01;100.00;99097.77;112877;1240;23281;-52
2024/01/18 06:15:58;;;;;;;10.30;4.80;;;;;;;2.02;100.00;99097.95;112818;1239;23349;-53
2024/01/18 06:18:25;;;;;;;12.30;6.10;;;;;;;2.04;100.00;99089.22;112802;1240;22472;-52
2024/01/18 06:20:52;;;;;;;12.50;6.00;;;;;;;2.06;100.00;99083.40;112817;1239;22737;-52
2024/01/18 06:23:19;;;;;;;15.80;5.90;;;;;;;2.07;100.00;99091.50;112466;1246;22449;-46
2024/01/18 06:25:45;;;;;;;13.80;6.00;;;;;;;2.08;100.00;99086.02;112819;1250;22336;-46
2024/01/18 06:28:12;;;;;;;11.80;6.10;;;;;;;2.09;100.00;99073.13;112754;1249;22255;-47
2024/01/18 06:30:45;;;;;;;13.00;6.50;;;;;;;2.13;100.00;99084.36;112765;1249;22329;-53
2024/01/18 06:33:19;;;;;;;14.00;6.90;;;;;;;2.16;100.00;99077.70;112079;1249;23048;-47
2024/01/18 06:36:15;;;;;;;9.70;6.00;;;;;;;2.19;100.00;99081.52;112113;1243;22392;-52
2024/01/18 06:39:37;;;;;;;11.50;5.60;;;;;;;2.22;100.00;99093.45;111584;1249;22544;-45
2024/01/18 06:42:20;;;;;;;;;;;;;;;2.24;100.00;99095.36;111167;1250;22579;-49
2024/01/18 06:45:16;;;;;;;17.10;6.30;;;;;;;2.26;100.00;99088.48;112104;1249;22609;-47
2024/01/18 06:48:26;;;;;;;16.90;6.40;;;;;;;2.29;100.00;99084.93;112074;1249;22517;-52
2024/01/18 06:54:34;;;;;;;22.30;7.20;;;;;;;2.34;100.00;99085.02;112337;1249;22852;-52
2024/01/18 06:57:41;;;;;;;12.70;6.70;;;;;;;2.39;100.00;99081.13;112417;1249;23687;-46
2024/01/18 07:00:26;;;;;;;15.50;7.10;;;;;;;2.44;100.00;99070.51;112674;1249;22285;-46
2024/01/18 07:02:54;;;;;;;17.70;6.90;;;;;;;2.48;100.00;99065.38;112103;1249;23306;-48
2024/01/18 07:05:21;;;;;;;15.70;6.90;;;;;;;2.51;100.00;99074.73;112681;1244;22706;-46
2024/01/18 07:07:48;;;;;;;16.80;7.10;;;;;;;2.53;100.00;99060.30;112670;1249;22365;-48
2024/01/18 07:10:15;;;;;;;24.00;7.40;;;;;;;2.55;100.00;99054.29;112745;1249;22246;-52
2024/01/18 07:12:41;;;;;;;15.50;7.20;;;;;;;2.57;100.00;99056.40;112774;1249;22483;-57
2024/01/18 07:15:08;;;;;;;24.60;8.70;;;;;;;2.59;100.00;99051.77;112783;1240;23149;-52
2024/01/18 07:17:36;;;;;;;14.30;7.00;;;;;;;2.63;100.00;99053.89;112641;1249;23050;-49
2024/01/18 07:20:04;;;;;;;14.50;7.20;;;;;;;2.66;100.00;99049.80;111997;1249;23165;-48
2024/01/18 07:22:49;;;;;;;18.90;7.80;;;;;;;2.71;100.00;99050.01;112069;1242;23446;-52
2024/01/18 07:25:15;;;;;;;23.00;9.10;;;;;;;2.75;100.00;99057.29;112349;1249;22887;-52
2024/01/18 07:32:12;;;;;;;23.70;8.90;;;;;;;2.83;100.00;99048.23;108476;1249;5238327;-52
2024/01/18 07:38:39;;;;;;;18.90;7.60;;;;;;;2.89;100.00;99029.02;112392;1240;22866;-46
2024/01/18 07:41:37;;;;;;;20.90;7.80;;;;;;;2.93;100.00;99031.65;112662;1246;22353;-53
2024/01/18 07:44:22;;;;;;;21.90;7.50;;;;;;;2.96;100.00;99019.98;112473;1249;23273;-46
2024/01/18 07:50:24;;;;;;;23.10;10.60;;;;;;;2.98;100.00;99015.52;112689;1249;22362;-48
2024/01/18 07:53:03;;;;;;;21.40;7.70;;;;;;;2.98;100.00;99011.55;112801;1249;23135;-54
2024/01/18 07:55:37;;;;;;;28.60;10.10;;;;;;;2.98;100.00;99007.93;112245;1249;22476;-49
2024/01/18 07:58:04;;;;;;;25.30;8.10;;;;;;;2.99;100.00;98993.48;112814;1241;22692;-47
2024/01/18 08:00:32;;;;;;;23.70;8.20;;;;;;;3.00;100.00;98985.39;112083;1249;22555;-46
2024/01/18 08:02:59;;;;;;;18.90;9.00;;;;;;;3.04;100.00;98981.48;112807;1237;22250;-48
2024/01/18 08:05:27;;;;;;;17.30;7.90;;;;;;;3.07;100.00;98973.40;112855;1249;22372;-47
2024/01/18 08:07:54;;;;;;;23.20;8.70;;;;;;;3.08;100.00;98975.48;112639;1240;22506;-52
2024/01/18 08:10:39;;;;;;;26.80;8.00;;;;;;;3.08;100.00;98983.41;112599;1240;23202;-47
2024/01/18 08:13:07;;;;;;;18.60;9.80;;;;;;;3.07;100.00;98964.42;112018;1249;23980;-53
2024/01/18 08:15:35;;;;;;;26.80;9.40;;;;;;;3.05;100.00;98971.98;112490;1249;22195;-47
2024/01/18 08:18:03;;;;;;;23.50;10.10;;;;;;;3.01;100.00;98969.55;112442;1241;22443;-47
2024/01/18 08:20:30;;;;;;;30.30;9.30;;;;;;;3.01;100.00;98974.70;111812;1240;23017;-50
2024/01/18 08:23:04;;;;;;;27.20;9.10;;;;;;;3.01;100.00;98966.10;112259;1249;22568;-52
2024/01/18 08:25:32;;;;;;;32.50;10.50;;;;;;;3.02;100.00;98977.49;112218;1240;22515;-46
2024/01/18 08:28:19;;;;;;;22.50;10.50;;;;;;;3.02;100.00;98979.23;111055;1249;22627;-47
2024/01/18 08:30:49;;;;;;;22.00;10.00;;;;;;;3.04;100.00;98983.02;111878;1249;22540;-51
2024/01/18 08:33:23;;;;;;;23.70;10.50;;;;;;;3.06;100.00;98980.61;111957;1249;22954;-48
2024/01/18 08:35:50;;;;;;;34.70;11.30;;;;;;;3.08;100.00;98968.06;112049;1249;22770;-48
2024/01/18 08:38:26;;;;;;;36.00;12.30;;;;;;;3.09;100.00;98970.66;111689;1245;22552;-52
2024/01/18 08:41:07;;;;;;;29.00;11.70;;;;;;;3.10;100.00;98967.05;111780;1249;22496;-46
2024/01/18 08:44:16;;;;;;;26.40;11.10;;;;;;;3.12;100.00;98966.70;111558;1249;22523;-47
2024/01/18 08:46:46;;;;;;;25.60;11.60;;;;;;;3.13;100.00;98968.80;111507;1254;24222;-52
2024/01/18 08:49:24;;;;;;;34.00;14.40;;;;;;;3.12;100.00;98970.16;111627;1254;22429;-47
2024/01/18 08:51:57;;;;;;;26.10;11.10;;;;;;;3.11;100.00;98969.80;111902;1254;22187;-52
2024/01/18 08:54:25;;;;;;;36.20;12.60;;;;;;;3.10;100.00;98968.26;111859;1248;23640;-47
2024/01/18 08:56:53;;;;;;;35.60;13.80;;;;;;;3.11;100.00;98957.92;112287;1244;22285;-48
2024/01/18 08:59:23;;;;;;;34.60;14.00;;;;;;;3.10;100.00;98951.70;111905;1254;23363;-47
2024/01/18 09:01:51;;;;;;;31.30;12.10;;;;;;;3.11;100.00;98953.79;111568;1254;22527;-52
2024/01/18 09:04:18;;;;;;;27.90;11.60;;;;;;;3.13;100.00;98936.41;112285;1254;22327;-51
2024/01/18 09:06:46;;;;;;;28.90;11.80;;;;;;;3.16;100.00;98944.36;111240;1250;22561;-47
2024/01/18 09:09:29;;;;;;;34.60;13.50;;;;;;;3.20;100.00;98936.64;111752;1254;23140;-52
2024/01/18 09:11:59;;;;;;;31.80;13.30;;;;;;;3.23;100.00;98929.41;111479;1254;23228;-46
2024/01/18 09:14:28;;;;;;;36.30;13.10;;;;;;;3.27;100.00;98932.90;111939;1254;22431;-49
2024/01/18 09:16:55;;;;;;;31.80;12.50;;;;;;;3.30;100.00;98926.37;111698;1244;23125;-45
2024/01/18 09:19:22;;;;;;;30.80;12.50;;;;;;;3.32;100.00;98924.33;112134;1254;23108;-47
2024/01/18 09:21:49;;;;;;;31.20;12.40;;;;;;;3.34;100.00;98912.44;111190;1254;23196;-52
2024/01/18 09:24:19;;;;;;;33.30;12.80;;;;;;;3.35;100.00;98913.99;111552;1254;22242;-50
2024/01/18 09:26:47;;;;;;;33.90;11.60;;;;;;;3.35;100.00;98912.61;111596;1254;22462;-47
2024/01/18 09:29:14;;;;;;;21.10;12.90;;;;;;;3.35;100.00;98899.52;111842;1243;22518;-52
2024/01/18 09:31:43;;;;;;;27.10;11.10;;;;;;;3.37;100.00;98908.16;112358;1249;22503;-52
2024/01/18 09:34:10;;;;;;;31.60;12.50;;;;;;;3.37;100.00;98900.77;112790;1249;22959;-50
2024/01/18 09:36:37;;;;;;;26.60;11.80;;;;;;;3.36;100.00;98896.41;112252;1249;22962;-45
2024/01/18 09:39:09;;;;;;;31.60;14.30;;;;;;;3.36;100.00;98901.42;112740;1249;23216;-46
2024/01/18 09:41:36;;;;;;;23.30;12.80;;;;;;;3.37;100.00;98899.20;112264;1249;22511;-52
2024/01/18 09:44:03;;;;;;;25.30;13.00;;;;;;;3.37;100.00;98895.58;112809;1249;22415;-50
2024/01/18 09:47:03;;;;;;;29.20;13.90;;;;;;;3.37;100.00;98883.17;111503;1249;22579;-48
2024/01/18 09:49:31;;;;;;;30.60;14.60;;;;;;;3.41;100.00;98875.94;112707;1249;22340;-47
2024/01/18 09:52:17;;;;;;;24.60;11.90;;;;;;;3.42;100.00;98867.69;112487;1249;22989;-46
2024/01/18 09:54:44;;;;;;;32.50;13.50;;;;;;;3.45;100.00;98853.90;112685;1249;22377;-47
2024/01/18 09:57:12;;;;;;;36.90;15.50;;;;;;;3.45;100.00;98845.80;112535;1249;23122;-45
2024/01/18 09:59:41;;;;;;;37.50;15.00;;;;;;;3.47;100.00;98841.68;112324;1249;22584;-51
2024/01/18 10:02:08;;;;;;;31.40;14.20;;;;;;;3.50;100.00;98846.52;112641;1249;22845;-52
2024/01/18 10:04:36;;;;;;;36.50;14.60;;;;;;;3.52;100.00;98849.97;112630;1249;23078;-52
2024/01/18 10:07:04;;;;;;;33.80;17.00;;;;;;;3.52;100.00;98840.14;112724;1249;22448;-55
2024/01/18 10:09:31;;;;;;;35.30;16.80;;;;;;;3.52;100.00;98836.52;112681;1249;22596;-53
2024/01/18 10:11:58;;;;;;;35.30;16.10;;;;;;;3.54;100.00;98838.61;112706;1249;23193;-52
2024/01/18 10:14:40;;;;;;;40.40;17.70;;;;;;;3.56;100.00;98821.90;112749;1249;23160;-52
2024/01/18 10:17:07;;;;;;;37.50;17.10;;;;;;;3.60;100.00;98812.27;112715;1249;22185;-52
2024/01/18 10:19:56;;;;;;;29.60;15.70;;;;;;;3.66;100.00;98807.45;112839;1249;22377;-52
2024/01/18 10:23:58;;;;;;;37.10;17.00;;;;;;;3.75;100.00;98800.06;112810;1249;23240;-52
2024/01/18 10:31:52;;;;;;;39.90;16.30;;;;;;;3.85;100.00;98797.52;112737;1249;23242;-52
2024/01/18 11:03:31;;;;;;;35.70;16.60;;;;;;;4.08;100.00;98720.45;112917;1249;23219;-46
2024/01/18 11:06:53;;;;;;;32.80;16.40;;;;;;;4.10;100.00;98705.77;112870;1249;22451;-46
2024/01/18 11:14:27;;;;;;;33.90;17.60;;;;;;;4.17;100.00;98716.65;112908;1249;22454;-52
2024/01/18 11:18:14;;;;;;;41.30;17.00;;;;;;;4.18;100.00;98691.98;111234;1249;22518;-52
2024/01/18 11:21:45;;;;;;;33.50;15.80;;;;;;;4.21;100.00;98693.88;112912;1249;23295;-46
2024/01/18 11:31:06;;;;;;;34.30;17.30;;;;;;;4.29;100.00;98674.55;112779;1249;22341;-46
2024/01/18 11:33:33;;;;;;;42.40;18.30;;;;;;;4.30;100.00;98671.11;112535;1249;22731;-45
2024/01/18 11:36:02;;;;;;;38.50;19.00;;;;;;;4.30;100.00;98674.90;112864;1249;22974;-45
2024/01/18 11:38:32;;;;;;;32.90;16.30;;;;;;;4.30;100.00;98661.09;112878;1249;23148;-48
2024/01/18 11:41:05;;;;;;;34.40;17.30;;;;;;;4.31;100.00;98660.39;112888;1249;22487;-46
2024/01/18 11:44:09;;;;;;;38.20;17.80;;;;;;;4.32;100.00;98657.98;112863;1249;23240;-46
2024/01/18 11:46:41;;;;;;;37.40;19.00;;;;;;;4.32;100.00;98649.86;112869;1249;22625;-46
2024/01/18 11:49:08;;;;;;;32.20;15.90;;;;;;;4.32;100.00;98646.77;112862;1249;22422;-53
2024/01/18 11:51:35;;;;;;;38.00;17.00;;;;;;;4.32;100.00;98644.52;112825;1249;22439;-54
2024/01/18 11:54:03;;;;;;;37.90;17.10;;;;;;;4.36;100.00;98652.96;112655;1249;22274;-48
2024/01/18 11:56:30;;;;;;;44.40;20.80;;;;;;;4.38;100.00;98650.20;112624;1249;22333;-46
2024/01/18 11:58:57;;;;;;;41.60;20.60;;;;;;;4.39;100.00;98641.91;112581;1249;22517;-52
2024/01/18 12:01:27;;;;;;;38.90;17.90;;;;;;;4.40;100.00;98639.66;112704;1249;22341;-46
2024/01/18 12:03:54;;;;;;;34.80;18.70;;;;;;;4.42;100.00;98627.41;112832;1249;22962;-45
2024/01/18 12:06:28;;;;;;;34.20;18.30;;;;;;;4.42;100.00;98627.23;112855;1249;23006;-46
2024/01/18 12:08:56;;;;;;;46.50;17.10;;;;;;;4.44;100.00;98621.52;112607;1249;22393;-46
2024/01/18 12:11:22;;;;;;;34.30;16.60;;;;;;;4.44;100.00;98620.66;112529;1249;22685;-46
2024/01/18 12:13:50;;;;;;;39.70;17.40;;;;;;;4.44;100.00;98619.80;112750;1249;22472;-46
2024/01/18 12:16:21;;;;;;;45.00;20.60;;;;;;;4.44;100.00;98616.17;112616;1249;22364;-45
2024/01/18 12:18:50;;;;;;;35.70;18.20;;;;;;;4.45;100.00;98616.69;112620;1249;22463;-47
2024/01/18 12:21:22;;;;;;;42.10;19.30;;;;;;;4.48;100.00;98610.13;112548;1249;25241;-52
2024/01/18 12:23:49;;;;;;;36.40;18.60;;;;;;;4.51;100.00;98612.02;112456;1249;23283;-46
2024/01/18 12:26:17;;;;;;;41.10;19.00;;;;;;;4.52;100.00;98609.26;112912;1249;23308;-46
2024/01/18 12:28:45;;;;;;;41.40;20.90;;;;;;;4.53;100.00;98609.78;112049;1249;23237;-51
2024/01/18 12:31:12;;;;;;;49.80;21.40;;;;;;;4.54;100.00;98608.05;112687;1249;22415;-51
2024/01/18 12:33:40;;;;;;;45.20;21.50;;;;;;;4.53;100.00;98607.19;112118;1249;22418;-46
2024/01/18 12:36:09;;;;;;;45.10;22.00;;;;;;;4.55;100.00;98609.59;112886;1249;22595;-46
2024/01/18 12:38:39;;;;;;;49.80;20.80;;;;;;;4.57;100.00;98612.70;112418;1249;22511;-46
2024/01/18 12:41:06;;;;;;;45.80;21.60;;;;;;;4.56;100.00;98603.54;112856;1249;22386;-45
2024/01/18 12:43:33;;;;;;;58.20;23.00;;;;;;;4.57;100.00;98607.34;112858;1249;22986;-46
2024/01/18 12:46:00;;;;;;;48.30;23.00;;;;;;;4.58;100.00;98608.55;112863;1249;22392;-46
2024/01/18 12:48:27;;;;;;;49.10;23.10;;;;;;;4.58;100.00;98607.87;112601;1249;22493;-46
2024/01/18 12:50:55;;;;;;;53.40;24.50;;;;;;;4.59;100.00;98599.76;112294;1249;22741;-46
2024/01/18 12:53:23;;;;;;;50.50;24.80;;;;;;;4.59;100.00;98598.19;112876;1249;22431;-53
2024/01/18 12:55:50;;;;;;;41.80;23.30;;;;;;;4.61;100.00;98596.63;112563;1249;22553;-48
2024/01/18 12:58:17;;;;;;;54.00;25.00;;;;;;;4.64;100.00;98583.32;112521;1249;22589;-47
2024/01/18 13:00:49;;;;;;;49.60;23.90;;;;;;;4.66;100.00;98585.73;112771;1249;22361;-48
2024/01/18 13:03:17;;;;;;;54.70;24.60;;;;;;;4.68;100.00;98578.46;112822;1249;22281;-46
2024/01/18 13:05:44;;;;;;;53.70;24.90;;;;;;;4.69;100.00;98577.07;112771;1249;22377;-45
2024/01/18 13:08:12;;;;;;;51.10;24.50;;;;;;;4.71;100.00;98577.08;112894;1249;22474;-52
2024/01/18 13:10:39;;;;;;;46.80;23.80;;;;;;;4.72;100.00;98574.30;112695;1249;22979;-46
2024/01/18 13:13:09;;;;;;;51.10;23.20;;;;;;;4.74;100.00;98562.20;112845;1249;22376;-45
2024/01/18 13:15:39;;;;;;;50.00;22.60;;;;;;;4.77;100.00;98564.27;112867;1249;22369;-52
2024/01/18 13:18:09;;;;;;;40.60;21.10;;;;;;;4.79;100.00;98558.20;112881;1249;22392;-46
2024/01/18 13:20:37;;;;;;;48.10;23.30;;;;;;;4.80;100.00;98547.48;112907;1249;22504;-46
2024/01/18 13:23:09;;;;;;;44.50;22.90;;;;;;;4.82;100.00;98540.59;112858;1249;22209;-46
2024/01/18 13:25:36;;;;;;;51.90;23.90;;;;;;;4.85;100.00;98546.27;112708;1249;23016;-51
2024/01/18 13:28:04;;;;;;;45.00;22.50;;;;;;;4.86;100.00;98550.57;112913;1249;22169;-53
2024/01/18 13:30:31;;;;;;;51.60;21.90;;;;;;;4.86;100.00;98544.36;112827;1249;23110;-51
2024/01/18 13:32:58;;;;;;;40.60;21.10;;;;;;;4.85;100.00;98549.02;112901;1249;22386;-47
2024/01/18 13:35:28;;;;;;;47.80;22.80;;;;;;;4.84;100.00;98536.42;112887;1249;23138;-51
2024/01/18 13:37:54;;;;;;;45.00;22.60;;;;;;;4.84;100.00;98538.84;112908;1249;23236;-47
2024/01/18 13:40:23;;;;;;;49.20;22.10;;;;;;;4.84;100.00;98542.30;112933;1249;23041;-52
2024/01/18 13:42:50;;;;;;;37.40;18.80;;;;;;;4.83;100.00;98543.69;112934;1249;22842;-46
2024/01/18 13:45:17;;;;;;;44.00;21.60;;;;;;;4.83;100.00;98541.11;112975;1249;22397;-46
2024/01/18 13:47:44;;;;;;;44.80;21.20;;;;;;;4.82;100.00;98533.34;111433;1249;25283;-53
2024/01/18 13:50:11;;;;;;;40.50;20.90;;;;;;;4.83;100.00;98539.72;112329;1249;22563;-46
2024/01/18 13:52:38;;;;;;;42.30;21.50;;;;;;;4.84;100.00;98533.15;111718;1249;22566;-46
2024/01/18 13:55:06;;;;;;;42.10;22.80;;;;;;;4.84;100.00;98529.87;110950;1249;22755;-51
2024/01/18 13:57:32;;;;;;;47.70;23.50;;;;;;;4.85;100.00;98536.42;112962;1249;22800;-47
2024/01/18 13:59:59;;;;;;;34.30;20.30;;;;;;;4.85;100.00;98537.79;112694;1249;22500;-53
2024/01/18 14:02:26;;;;;;;46.30;22.20;;;;;;;4.86;100.00;98538.48;111045;1249;22522;-50
2024/01/18 14:04:54;;;;;;;44.40;21.70;;;;;;;4.85;100.00;98535.72;111132;1249;22436;-52
2024/01/18 14:07:21;;;;;;;37.40;22.40;;;;;;;4.85;100.00;98531.23;112881;1249;23227;-47
2024/01/18 14:09:48;;;;;;;37.50;19.70;;;;;;;4.83;100.00;98531.25;112446;1249;22490;-46
2024/01/18 14:12:14;;;;;;;43.90;21.20;;;;;;;4.82;100.00;98523.66;112975;1249;22398;-52
2024/01/18 14:14:41;;;;;;;41.70;22.10;;;;;;;4.84;100.00;98523.11;112940;1249;22373;-53
2024/01/18 14:17:08;;;;;;;42.70;22.50;;;;;;;4.86;100.00;98526.55;112949;1249;22421;-52
2024/01/18 14:19:35;;;;;;;39.00;20.70;;;;;;;4.87;100.00;98520.35;112968;1249;22146;-52
2024/01/18 14:22:02;;;;;;;48.60;23.90;;;;;;;4.89;100.00;98521.71;112962;1249;22450;-46
2024/01/18 14:24:30;;;;;;;42.80;22.70;;;;;;;4.91;100.00;98522.39;112994;1249;22362;-51
2024/01/18 14:26:57;;;;;;;53.70;24.60;;;;;;;4.92;100.00;98514.09;112975;1249;22299;-46
2024/01/18 14:29:24;;;;;;;40.90;21.80;;;;;;;4.94;100.00;98513.05;112989;1249;22363;-45
2024/01/18 14:31:51;;;;;;;45.70;22.20;;;;;;;4.95;100.00;98506.13;113003;1249;23123;-46
2024/01/18 14:34:18;;;;;;;46.20;24.30;;;;;;;4.98;100.00;98505.94;111117;1249;25329;-50
2024/01/18 14:36:46;;;;;;;44.80;22.20;;;;;;;4.99;100.00;98502.66;109988;1249;24013;-52
2024/01/18 14:39:15;;;;;;;37.70;22.10;;;;;;;5.01;100.00;98502.64;111542;1249;23209;-52
2024/01/18 14:41:42;;;;;;;48.00;24.10;;;;;;;5.03;100.00;98500.20;112948;1249;22433;-53
2024/01/18 14:44:09;;;;;;;37.20;21.50;;;;;;;5.03;100.00;98494.14;112978;1249;23131;-47
2024/01/18 14:46:36;;;;;;;38.40;21.30;;;;;;;5.04;100.00;98492.08;112066;1249;22530;-52
2024/01/18 14:49:04;;;;;;;36.20;21.40;;;;;;;5.05;100.00;98483.45;112405;1249;22425;-46
2024/01/18 14:51:31;;;;;;;36.30;21.80;;;;;;;5.07;100.00;98480.14;112689;1249;23166;-46
2024/01/18 14:53:58;;;;;;;38.50;20.20;;;;;;;5.07;100.00;98473.73;112353;1249;24050;-52
2024/01/18 14:56:25;;;;;;;33.20;20.60;;;;;;;5.07;100.00;98477.37;110290;1249;23467;-53
2024/01/18 14:58:52;;;;;;;39.60;21.40;;;;;;;5.07;100.00;98475.99;110140;1249;24194;-45
2024/01/18 15:01:19;;;;;;;33.60;20.60;;;;;;;5.06;100.00;98476.69;110597;1249;25624;-47
2024/01/18 15:03:47;;;;;;;40.10;22.80;;;;;;;5.07;100.00;98473.40;110678;1249;22523;-46
2024/01/18 15:06:14;;;;;;;34.30;21.10;;;;;;;5.07;100.00;98473.75;110022;1249;22551;-52
